Time;durP1;ratioP1;P1;durP2;ratioP2;P2;SDS_P1;SDS_P2;PMS_P1;PMS_P2;Temp;Humidity;BMP_temperature;BMP_pressure;BME280_temperature;BME280_humidity;BME280_pressure;Samples;Min_cycle;Max_cycle;Signal;HPM_P1;HPM_P2
2022/03/17 00:02:16;;;;;;;32.22;25.45;;;11.70;99.90;;;;;;5041387;28;20030;-71
2022/03/17 00:04:43;;;;;;;29.33;26.23;;;11.70;99.90;;;;;;5035150;28;20022;-72
2022/03/17 00:07:09;;;;;;;31.70;25.40;;;11.80;99.90;;;;;;5042861;28;20352;-71
2022/03/17 00:09:34;;;;;;;32.38;26.48;;;11.80;99.90;;;;;;5045273;28;20095;-70
2022/03/17 00:12:00;;;;;;;28.25;23.25;;;11.70;99.90;;;;;;5037544;28;20048;-69
2022/03/17 00:14:26;;;;;;;27.88;24.15;;;11.80;99.90;;;;;;5039530;28;20169;-70
2022/03/17 00:16:52;;;;;;;28.23;23.85;;;11.80;99.90;;;;;;5035363;28;20040;-71
2022/03/17 00:19:17;;;;;;;31.77;24.00;;;11.70;99.90;;;;;;5042403;28;20382;-72
2022/03/17 00:21:43;;;;;;;26.40;21.67;;;11.70;99.90;;;;;;5039860;28;20276;-72
2022/03/17 00:24:09;;;;;;;29.05;24.20;;;11.80;99.90;;;;;;5040148;28;20494;-71
2022/03/17 00:26:38;;;;;;;26.63;23.05;;;11.80;99.90;;;;;;5042950;28;20132;-71
2022/03/17 00:29:07;;;;;;;27.75;24.88;;;11.80;99.90;;;;;;5038256;28;20044;-71
2022/03/17 00:31:37;;;;;;;27.70;24.55;;;11.70;99.90;;;;;;5044202;28;20112;-72
2022/03/17 00:34:05;;;;;;;27.48;24.60;;;11.80;99.90;;;;;;5044088;28;20372;-70
2022/03/17 00:36:34;;;;;;;26.83;24.02;;;11.70;99.90;;;;;;5046592;28;20033;-72
2022/03/17 00:39:00;;;;;;;29.25;26.20;;;11.80;99.90;;;;;;5044454;28;20033;-73
2022/03/17 00:41:26;;;;;;;26.58;23.77;;;11.80;99.90;;;;;;5059553;28;20033;-70
2022/03/17 00:43:52;;;;;;;28.70;24.42;;;11.80;99.90;;;;;;5044570;28;20051;-71
2022/03/17 00:46:17;;;;;;;36.85;23.60;;;11.70;99.90;;;;;;5043069;28;20057;-72
2022/03/17 00:48:43;;;;;;;26.58;22.33;;;11.60;99.90;;;;;;5042644;28;20025;-71
2022/03/17 00:51:09;;;;;;;29.52;23.33;;;11.80;99.90;;;;;;5044584;28;20090;-71
2022/03/17 00:53:35;;;;;;;24.92;22.40;;;11.90;99.90;;;;;;5047559;28;20024;-70
2022/03/17 00:56:00;;;;;;;28.13;24.33;;;11.80;99.90;;;;;;5047185;28;20033;-71
2022/03/17 00:58:29;;;;;;;32.78;24.27;;;11.90;99.90;;;;;;5040880;28;20075;-71
2022/03/17 01:00:55;;;;;;;24.77;22.13;;;11.80;99.90;;;;;;5043225;28;20128;-71
2022/03/17 01:03:21;;;;;;;26.58;21.80;;;11.80;99.90;;;;;;5042734;28;20086;-71
2022/03/17 01:05:46;;;;;;;32.60;21.52;;;11.80;99.90;;;;;;5038560;28;20033;-72
2022/03/17 01:08:13;;;;;;;26.13;23.13;;;11.80;99.90;;;;;;5042728;28;20029;-73
2022/03/17 01:10:39;;;;;;;25.80;22.48;;;11.80;99.90;;;;;;5046681;28;20052;-72
2022/03/17 01:13:06;;;;;;;30.10;24.63;;;11.70;99.90;;;;;;5042622;28;20049;-72
2022/03/17 01:15:32;;;;;;;23.83;21.42;;;11.70;99.90;;;;;;5040806;28;20475;-71
2022/03/17 01:17:57;;;;;;;23.67;21.40;;;11.90;99.90;;;;;;5040950;28;20435;-72
2022/03/17 01:20:23;;;;;;;29.30;22.48;;;11.80;99.90;;;;;;5045126;28;20036;-71
2022/03/17 01:22:49;;;;;;;22.30;19.90;;;11.90;99.90;;;;;;5046361;28;20055;-72
2022/03/17 01:25:15;;;;;;;23.55;20.20;;;11.90;99.90;;;;;;5046869;28;20029;-71
2022/03/17 01:27:41;;;;;;;21.48;19.27;;;11.80;99.90;;;;;;5048611;28;20075;-72
2022/03/17 01:30:09;;;;;;;27.77;20.42;;;11.80;99.90;;;;;;5048878;28;20214;-72
2022/03/17 01:32:37;;;;;;;24.95;21.73;;;11.80;99.90;;;;;;5046649;28;20084;-72
2022/03/17 01:35:03;;;;;;;25.92;22.98;;;11.70;99.90;;;;;;5039324;28;20131;-71
2022/03/17 01:37:29;;;;;;;23.02;20.63;;;11.80;99.90;;;;;;5041605;28;20576;-71
2022/03/17 01:39:55;;;;;;;23.58;21.08;;;11.80;99.90;;;;;;5046357;28;20045;-70
2022/03/17 01:42:21;;;;;;;23.13;20.70;;;11.90;99.90;;;;;;5039856;28;20029;-71
2022/03/17 01:44:46;;;;;;;22.55;20.25;;;11.90;99.90;;;;;;5043183;28;20110;-70
2022/03/17 01:47:27;;;;;;;27.50;22.55;;;11.90;99.90;;;;;;5044255;28;20021;-71
2022/03/17 01:50:01;;;;;;;24.00;20.55;;;11.90;99.90;;;;;;5041040;28;20033;-71
2022/03/17 01:52:27;;;;;;;24.70;22.10;;;11.90;99.90;;;;;;5042868;28;20074;-73
2022/03/17 01:54:53;;;;;;;25.33;20.15;;;12.00;99.90;;;;;;5044441;28;20407;-71
2022/03/17 01:57:20;;;;;;;27.10;21.48;;;12.10;99.90;;;;;;5045522;28;20033;-71
2022/03/17 01:59:48;;;;;;;23.70;21.23;;;12.20;99.90;;;;;;5043386;28;20021;-71
2022/03/17 02:02:14;;;;;;;22.42;20.10;;;12.20;99.90;;;;;;5041779;28;20032;-70
2022/03/17 02:04:43;;;;;;;24.33;21.80;;;12.20;99.90;;;;;;5042338;28;20025;-71
2022/03/17 02:07:12;;;;;;;23.67;20.20;;;12.20;99.90;;;;;;5039958;28;20115;-71
2022/03/17 02:09:38;;;;;;;27.80;22.08;;;12.20;99.90;;;;;;5039572;28;20028;-71
2022/03/17 02:14:52;;;;;;;27.00;22.38;;;12.20;99.90;;;;;;5042890;28;20062;-72
2022/03/17 02:17:18;;;;;;;22.55;20.35;;;12.20;99.90;;;;;;5041535;28;20032;-71
2022/03/17 02:19:45;;;;;;;27.63;22.95;;;12.20;99.90;;;;;;5042273;28;20510;-71
2022/03/17 02:22:14;;;;;;;28.50;22.13;;;12.20;99.90;;;;;;5041565;28;20040;-71
2022/03/17 02:25:41;;;;;;;24.67;22.33;;;12.20;99.90;;;;;;5048905;28;20028;-72
2022/03/17 02:27:38;;;;;;;24.90;22.40;;;12.20;99.90;;;;;;5037458;28;20467;-71
2022/03/17 02:30:06;;;;;;;23.73;21.38;;;12.30;99.90;;;;;;5039773;28;20119;-70
2022/03/17 02:32:32;;;;;;;25.83;23.23;;;12.30;99.90;;;;;;5039514;28;20467;-71
2022/03/17 02:35:01;;;;;;;26.42;23.55;;;12.30;99.90;;;;;;5044735;28;20043;-71
2022/03/17 02:37:27;;;;;;;27.60;22.70;;;12.30;99.90;;;;;;5045205;28;20040;-71
2022/03/17 02:39:53;;;;;;;29.13;24.98;;;12.30;99.90;;;;;;5045303;28;20025;-72
2022/03/17 02:42:19;;;;;;;26.73;23.83;;;12.30;99.90;;;;;;5041592;28;20442;-71
2022/03/17 02:44:45;;;;;;;25.70;22.98;;;12.30;99.90;;;;;;5055519;28;20036;-72
2022/03/17 02:47:11;;;;;;;29.90;23.90;;;12.40;99.90;;;;;;5034780;28;20029;-71
2022/03/17 02:49:37;;;;;;;29.33;25.65;;;12.30;99.90;;;;;;5037014;28;20139;-72
2022/03/17 02:52:03;;;;;;;29.60;24.65;;;12.30;99.90;;;;;;5042624;28;20024;-71
2022/03/17 02:54:29;;;;;;;33.00;26.35;;;12.30;99.90;;;;;;5044167;28;20533;-71
2022/03/17 02:56:54;;;;;;;27.73;25.00;;;12.30;99.90;;;;;;5042940;28;20037;-71
2022/03/17 02:59:20;;;;;;;25.77;22.83;;;12.40;99.90;;;;;;5042136;28;20036;-72
2022/03/17 03:01:46;;;;;;;28.40;25.35;;;12.40;99.90;;;;;;5039100;28;20025;-72
2022/03/17 03:04:16;;;;;;;31.85;25.25;;;12.40;99.90;;;;;;5038012;28;20026;-71
2022/03/17 03:06:45;;;;;;;27.13;24.27;;;12.40;99.90;;;;;;5037599;28;20064;-70
2022/03/17 03:09:12;;;;;;;27.48;24.65;;;12.40;99.90;;;;;;5037320;28;20036;-71
2022/03/17 03:11:38;;;;;;;27.27;23.38;;;12.40;99.90;;;;;;5039506;28;20039;-71
2022/03/17 03:14:07;;;;;;;30.05;25.30;;;12.40;99.90;;;;;;5040024;28;20643;-71
2022/03/17 03:16:35;;;;;;;25.52;22.83;;;12.30;99.90;;;;;;5040328;28;20375;-73
2022/03/17 03:19:01;;;;;;;28.10;25.27;;;12.30;99.90;;;;;;5035647;28;20124;-71
2022/03/17 03:21:26;;;;;;;29.80;25.17;;;12.30;99.90;;;;;;5043260;28;20104;-71
2022/03/17 03:23:52;;;;;;;28.48;25.60;;;12.40;99.90;;;;;;5043424;28;20044;-71
2022/03/17 03:26:18;;;;;;;28.10;25.30;;;12.40;99.90;;;;;;5042215;28;20025;-70
2022/03/17 03:28:43;;;;;;;27.52;24.63;;;12.40;99.90;;;;;;5041172;28;20017;-73
2022/03/17 03:31:09;;;;;;;26.92;24.08;;;12.40;99.90;;;;;;5037267;28;20399;-71
2022/03/17 03:33:35;;;;;;;28.98;25.42;;;12.40;99.90;;;;;;5040408;28;20104;-70
2022/03/17 03:38:46;;;;;;;26.67;24.08;;;12.30;99.90;;;;;;5040739;28;20086;-70
2022/03/17 03:41:12;;;;;;;29.58;25.15;;;12.10;99.90;;;;;;5045705;28;20440;-72
2022/03/17 03:43:38;;;;;;;28.70;25.75;;;12.20;99.90;;;;;;5047341;28;20039;-70
2022/03/17 03:46:03;;;;;;;27.48;24.58;;;12.30;99.90;;;;;;5042266;28;20017;-71
2022/03/17 03:48:31;;;;;;;27.27;24.55;;;12.30;99.90;;;;;;5046348;28;20582;-69
2022/03/17 03:50:57;;;;;;;28.27;25.02;;;12.30;99.90;;;;;;5037373;28;20022;-71
2022/03/17 03:54:12;;;;;;;33.53;24.75;;;12.30;99.90;;;;;;5043563;28;20027;-70
2022/03/17 03:56:08;;;;;;;26.52;23.20;;;12.30;99.90;;;;;;5041952;28;20502;-73
2022/03/17 03:58:34;;;;;;;31.08;26.25;;;12.40;99.90;;;;;;5039142;28;20108;-72
2022/03/17 04:01:00;;;;;;;29.35;25.60;;;12.30;99.90;;;;;;5047693;28;20392;-71
2022/03/17 04:03:25;;;;;;;37.38;27.45;;;12.40;99.90;;;;;;5039310;28;20140;-71
2022/03/17 04:05:51;;;;;;;31.38;26.30;;;12.40;99.90;;;;;;5044570;28;20387;-71
2022/03/17 04:08:17;;;;;;;32.17;25.85;;;12.40;99.90;;;;;;5036345;28;20063;-71
2022/03/17 04:10:43;;;;;;;32.00;26.58;;;12.40;99.90;;;;;;5045456;28;20488;-70
2022/03/17 04:13:08;;;;;;;27.73;24.92;;;12.40;99.90;;;;;;5048067;28;20116;-70
2022/03/17 04:15:34;;;;;;;29.55;24.48;;;12.40;99.90;;;;;;5050831;28;20119;-71
2022/03/17 04:18:00;;;;;;;28.95;25.90;;;12.40;99.90;;;;;;5043873;28;20444;-71
2022/03/17 04:20:26;;;;;;;32.28;26.77;;;12.40;99.90;;;;;;5048114;28;20024;-70
2022/03/17 04:22:51;;;;;;;30.75;26.80;;;12.40;99.90;;;;;;5041934;28;20090;-69
2022/03/17 04:25:17;;;;;;;30.58;27.27;;;12.40;99.90;;;;;;5044607;28;20037;-70
2022/03/17 04:27:43;;;;;;;29.83;26.33;;;12.40;99.90;;;;;;5047746;28;20111;-70
2022/03/17 04:30:09;;;;;;;30.63;25.65;;;12.40;99.90;;;;;;5052792;28;20028;-71
2022/03/17 04:32:35;;;;;;;34.45;28.35;;;12.40;99.90;;;;;;5053784;28;20024;-71
2022/03/17 04:35:00;;;;;;;32.65;29.17;;;12.40;99.90;;;;;;5053356;28;20384;-70
2022/03/17 04:37:26;;;;;;;36.80;27.27;;;12.50;99.90;;;;;;5053273;28;20056;-71
2022/03/17 04:39:52;;;;;;;31.40;28.00;;;12.50;99.90;;;;;;5052064;28;20033;-71
2022/03/17 04:42:18;;;;;;;33.00;27.70;;;12.50;99.90;;;;;;5060876;28;20028;-70
2022/03/17 04:44:44;;;;;;;31.63;27.98;;;12.50;99.90;;;;;;5041961;28;20112;-72
2022/03/17 04:47:09;;;;;;;36.03;28.80;;;12.50;99.90;;;;;;5046891;28;20171;-72
2022/03/17 04:49:45;;;;;;;35.95;28.58;;;12.40;99.90;;;;;;5048843;28;20037;-71
2022/03/17 04:55:08;;;;;;;37.63;29.65;;;12.40;99.90;;;;;;5041859;28;20087;-72
2022/03/17 04:57:43;;;;;;;33.58;29.92;;;12.40;99.90;;;;;;5045739;28;20029;-72
2022/03/17 05:00:14;;;;;;;36.83;29.73;;;12.40;99.90;;;;;;5043717;28;20025;-71
2022/03/17 05:02:40;;;;;;;35.92;29.25;;;12.40;99.90;;;;;;5044263;28;20027;-73
2022/03/17 05:05:10;;;;;;;32.33;29.00;;;12.40;99.90;;;;;;5043669;28;20021;-74
2022/03/17 05:07:40;;;;;;;33.75;30.15;;;12.40;99.90;;;;;;5043752;28;20021;-72
2022/03/17 05:10:07;;;;;;;31.92;27.98;;;12.40;99.90;;;;;;5048745;28;20029;-72
2022/03/17 05:12:34;;;;;;;30.95;25.45;;;12.40;99.90;;;;;;5049012;28;20124;-73
2022/03/17 05:15:00;;;;;;;34.65;31.02;;;12.40;99.90;;;;;;5040814;28;20077;-73
2022/03/17 05:17:27;;;;;;;32.72;29.17;;;12.40;99.90;;;;;;5046333;28;20060;-73
2022/03/17 05:19:56;;;;;;;33.25;29.27;;;12.40;99.90;;;;;;5047529;28;20033;-72
2022/03/17 05:22:22;;;;;;;30.08;26.50;;;12.40;99.90;;;;;;5046811;28;20045;-73
2022/03/17 05:24:50;;;;;;;31.40;27.08;;;12.40;99.90;;;;;;5043735;28;20036;-73
2022/03/17 05:27:16;;;;;;;36.08;28.88;;;12.40;99.90;;;;;;5045585;28;20029;-72
2022/03/17 05:29:45;;;;;;;32.33;28.00;;;12.40;99.90;;;;;;5045142;28;20051;-70
2022/03/17 05:32:17;;;;;;;43.05;29.58;;;12.40;99.90;;;;;;5043082;28;20025;-72
2022/03/17 05:34:44;;;;;;;30.38;27.23;;;12.40;99.90;;;;;;5041527;28;20029;-73
2022/03/17 05:37:10;;;;;;;32.28;28.85;;;12.40;99.90;;;;;;5042937;28;20021;-72
2022/03/17 05:39:36;;;;;;;35.13;30.30;;;12.40;99.90;;;;;;5044193;28;20040;-72
2022/03/17 05:42:03;;;;;;;41.92;28.48;;;12.40;99.90;;;;;;5043790;28;20344;-72
2022/03/17 05:44:28;;;;;;;34.65;27.98;;;12.40;99.90;;;;;;5044048;28;20036;-71
2022/03/17 05:46:54;;;;;;;30.88;25.98;;;12.40;99.90;;;;;;5043983;28;20025;-71
2022/03/17 05:49:20;;;;;;;26.35;23.02;;;12.40;99.90;;;;;;5045085;28;20602;-71
2022/03/17 05:51:45;;;;;;;31.38;27.67;;;12.40;99.90;;;;;;5040133;28;20037;-70
2022/03/17 05:54:11;;;;;;;29.30;26.17;;;12.40;99.90;;;;;;5046709;28;20095;-71
2022/03/17 05:56:37;;;;;;;29.02;25.65;;;12.40;99.90;;;;;;5045907;28;20484;-71
2022/03/17 05:59:03;;;;;;;33.08;29.60;;;12.40;99.90;;;;;;5042449;28;20444;-71
2022/03/17 06:01:28;;;;;;;30.52;27.35;;;12.40;99.90;;;;;;5045376;28;20057;-71
2022/03/17 06:03:54;;;;;;;32.42;27.60;;;12.50;99.90;;;;;;5041008;28;20060;-71
2022/03/17 06:06:20;;;;;;;31.52;28.30;;;12.40;99.90;;;;;;5042773;28;20092;-70
2022/03/17 06:08:45;;;;;;;30.05;26.88;;;12.50;99.90;;;;;;5043052;28;20124;-71
2022/03/17 06:11:11;;;;;;;33.90;28.52;;;12.50;99.90;;;;;;5043163;28;20052;-71
2022/03/17 06:13:37;;;;;;;31.75;28.30;;;12.50;99.90;;;;;;5052142;28;20078;-70
2022/03/17 06:16:05;;;;;;;36.88;28.70;;;12.50;99.90;;;;;;5048075;28;20031;-70
2022/03/17 06:18:31;;;;;;;42.60;28.48;;;12.60;99.90;;;;;;5039870;28;20041;-71
2022/03/17 06:20:57;;;;;;;31.85;28.55;;;12.60;99.90;;;;;;5049333;28;20027;-71
2022/03/17 06:23:22;;;;;;;37.15;29.52;;;12.60;99.90;;;;;;5044742;28;20033;-74
2022/03/17 06:25:49;;;;;;;29.98;26.77;;;12.60;99.90;;;;;;5044501;28;20022;-71
2022/03/17 06:28:15;;;;;;;34.67;27.88;;;12.60;99.90;;;;;;5043653;28;20021;-70
2022/03/17 06:30:41;;;;;;;29.85;26.70;;;12.60;99.90;;;;;;5043826;28;20463;-70
2022/03/17 06:33:07;;;;;;;30.38;27.15;;;12.70;99.90;;;;;;5035732;28;20021;-72
2022/03/17 06:35:34;;;;;;;36.55;28.85;;;12.70;99.90;;;;;;5042077;28;20030;-70
2022/03/17 06:38:02;;;;;;;29.17;25.92;;;12.70;99.90;;;;;;5042386;28;20057;-71
2022/03/17 06:40:29;;;;;;;30.83;27.73;;;12.70;99.90;;;;;;5046799;28;20037;-70
2022/03/17 06:42:55;;;;;;;30.40;26.75;;;12.80;99.90;;;;;;5039813;28;20105;-70
2022/03/17 06:45:22;;;;;;;30.60;25.80;;;12.90;99.90;;;;;;5045456;28;20538;-71
2022/03/17 06:47:48;;;;;;;32.08;27.40;;;12.90;99.90;;;;;;5040057;28;20036;-72
2022/03/17 06:50:16;;;;;;;30.50;27.17;;;12.90;99.90;;;;;;5041480;28;20117;-72
2022/03/17 06:52:42;;;;;;;31.73;28.17;;;12.80;99.90;;;;;;5041509;28;20025;-68
2022/03/17 06:55:08;;;;;;;28.83;25.05;;;12.80;99.90;;;;;;5044336;28;20426;-68
2022/03/17 06:57:34;;;;;;;28.73;24.95;;;12.80;99.90;;;;;;5044131;28;20037;-68
2022/03/17 07:00:05;;;;;;;32.33;25.95;;;12.80;99.90;;;;;;5048276;28;20037;-66
2022/03/17 07:02:31;;;;;;;32.63;25.93;;;12.80;99.90;;;;;;5045531;28;20113;-67
2022/03/17 07:04:57;;;;;;;29.58;25.77;;;12.80;99.90;;;;;;5037964;28;20048;-68
2022/03/17 07:07:23;;;;;;;28.10;25.05;;;12.80;99.90;;;;;;5041547;28;20391;-68
2022/03/17 07:09:49;;;;;;;32.38;27.05;;;12.90;99.90;;;;;;5039695;28;20045;-68
2022/03/17 07:12:15;;;;;;;31.30;25.13;;;12.80;99.90;;;;;;5042610;28;20025;-68
2022/03/17 07:14:41;;;;;;;30.88;27.67;;;12.90;99.90;;;;;;5043802;28;20079;-68
2022/03/17 07:17:07;;;;;;;27.17;24.35;;;13.00;99.90;;;;;;5040418;28;20025;-69
2022/03/17 07:19:34;;;;;;;29.10;26.10;;;13.00;99.90;;;;;;5036674;28;20375;-67
2022/03/17 07:22:00;;;;;;;31.20;25.70;;;13.10;99.90;;;;;;5037366;28;20022;-67
2022/03/17 07:24:26;;;;;;;29.17;25.67;;;13.10;99.90;;;;;;5038452;28;20037;-67
2022/03/17 07:26:52;;;;;;;27.73;24.08;;;13.20;99.90;;;;;;5041430;28;20030;-68
2022/03/17 07:29:18;;;;;;;28.45;25.40;;;13.30;99.90;;;;;;5038215;28;20053;-68
2022/03/17 07:31:44;;;;;;;28.10;24.63;;;13.40;99.90;;;;;;5037680;28;20032;-68
2022/03/17 07:34:09;;;;;;;28.48;25.30;;;13.50;99.90;;;;;;5034010;28;20018;-68
2022/03/17 07:36:35;;;;;;;29.17;26.10;;;13.40;99.90;;;;;;5040226;28;20368;-67
2022/03/17 07:39:02;;;;;;;27.13;24.38;;;13.40;99.90;;;;;;5039375;28;20028;-67
2022/03/17 07:41:28;;;;;;;28.17;25.23;;;13.40;99.90;;;;;;5041403;28;20029;-69
2022/03/17 07:43:54;;;;;;;32.30;25.35;;;13.50;99.90;;;;;;5038794;28;20112;-68
2022/03/17 07:46:20;;;;;;;33.17;25.17;;;13.40;99.90;;;;;;5031197;28;20120;-68
2022/03/17 07:48:45;;;;;;;32.28;25.75;;;13.30;99.90;;;;;;5024927;28;20025;-67
2022/03/17 07:51:11;;;;;;;25.30;20.67;;;13.40;99.90;;;;;;5042444;28;20029;-66
2022/03/17 07:53:39;;;;;;;30.50;25.73;;;13.30;99.90;;;;;;5037355;28;20036;-67
2022/03/17 07:56:06;;;;;;;33.80;24.02;;;13.20;99.90;;;;;;5041839;28;20018;-71
2022/03/17 07:58:32;;;;;;;27.80;23.50;;;13.20;99.90;;;;;;5041898;28;20029;-68
2022/03/17 08:01:01;;;;;;;28.15;25.08;;;13.30;99.90;;;;;;5036485;28;20021;-66
2022/03/17 08:03:27;;;;;;;24.90;22.25;;;13.30;99.90;;;;;;5039768;28;20025;-69
2022/03/17 08:05:53;;;;;;;31.48;23.38;;;13.30;99.90;;;;;;5038985;28;20399;-66
2022/03/17 08:08:19;;;;;;;27.75;24.75;;;13.30;99.90;;;;;;5039055;28;20032;-66
2022/03/17 08:10:46;;;;;;;26.65;21.75;;;13.30;99.90;;;;;;5035286;28;20365;-68
2022/03/17 08:13:13;;;;;;;25.98;20.60;;;13.40;99.90;;;;;;5041000;28;20026;-68
2022/03/17 08:15:40;;;;;;;27.92;25.00;;;13.50;99.90;;;;;;5039007;28;20033;-67
2022/03/17 08:18:07;;;;;;;29.38;19.98;;;13.50;99.90;;;;;;5038898;28;20045;-68
2022/03/17 08:20:39;;;;;;;28.92;23.35;;;13.50;99.90;;;;;;5043712;28;20421;-68
2022/03/17 08:23:05;;;;;;;;;;;13.50;99.90;;;;;;5039353;28;20424;-67
2022/03/17 08:25:31;;;;;;;31.42;22.70;;;13.60;99.90;;;;;;5038729;28;20371;-68
2022/03/17 08:27:57;;;;;;;33.50;21.33;;;13.70;99.90;;;;;;5040517;28;20178;-67
2022/03/17 08:30:22;;;;;;;25.20;21.48;;;13.80;99.90;;;;;;5044447;28;20022;-68
2022/03/17 08:32:49;;;;;;;33.80;22.45;;;13.80;99.90;;;;;;5039993;28;20110;-67
2022/03/17 08:35:15;;;;;;;28.77;22.50;;;13.90;99.90;;;;;;5041954;28;20029;-67
2022/03/17 08:37:45;;;;;;;27.10;21.65;;;14.00;99.90;;;;;;5036201;28;20336;-69
2022/03/17 08:40:13;;;;;;;30.83;23.63;;;14.10;99.90;;;;;;5037016;28;20036;-67
2022/03/17 08:42:40;;;;;;;19.88;17.30;;;14.20;99.90;;;;;;5044113;28;20063;-68
2022/03/17 08:50:42;;;;;;;20.58;18.38;;;13.90;99.90;;;;;;5038541;28;20060;-67
2022/03/17 08:53:08;;;;;;;25.20;17.87;;;14.00;99.90;;;;;;5039614;28;20071;-68
2022/03/17 08:55:36;;;;;;;23.95;17.52;;;14.00;99.90;;;;;;5032288;28;20386;-66
2022/03/17 08:58:02;;;;;;;19.38;17.00;;;13.90;99.90;;;;;;5039942;28;20021;-68
2022/03/17 09:00:31;;;;;;;19.88;17.83;;;14.10;99.90;;;;;;5042104;28;20639;-66
2022/03/17 09:03:01;;;;;;;23.45;19.45;;;14.00;99.90;;;;;;5046243;28;20519;-68
2022/03/17 09:05:28;;;;;;;20.73;17.42;;;14.20;99.90;;;;;;5043070;28;20602;-67
2022/03/17 09:07:55;;;;;;;22.13;16.60;;;14.50;99.90;;;;;;5040666;28;20079;-67
2022/03/17 09:10:22;;;;;;;22.52;17.17;;;14.30;99.90;;;;;;5038500;28;20391;-67
2022/03/17 09:12:47;;;;;;;17.92;16.05;;;14.30;99.90;;;;;;5046259;28;20153;-67
2022/03/17 09:15:14;;;;;;;18.30;15.80;;;14.30;99.90;;;;;;5044787;28;20032;-67
2022/03/17 09:17:41;;;;;;;22.13;16.80;;;14.20;99.90;;;;;;5042139;28;20048;-67
2022/03/17 09:20:14;;;;;;;21.08;16.90;;;14.30;99.90;;;;;;5038857;28;20059;-67
2022/03/17 09:22:40;;;;;;;25.30;17.13;;;14.50;99.90;;;;;;5043802;28;20487;-67
2022/03/17 09:25:07;;;;;;;22.25;16.17;;;14.80;99.90;;;;;;5035725;28;20026;-66
2022/03/17 09:27:33;;;;;;;16.88;15.05;;;14.70;99.90;;;;;;5043574;28;20021;-67
2022/03/17 09:29:59;;;;;;;23.33;16.27;;;14.60;99.90;;;;;;5043883;28;20502;-68
2022/03/17 09:32:25;;;;;;;18.88;16.60;;;14.70;99.90;;;;;;5044114;28;20036;-66
2022/03/17 09:34:51;;;;;;;17.20;15.05;;;14.60;99.90;;;;;;5042516;28;20111;-68
2022/03/17 09:37:17;;;;;;;19.45;16.52;;;14.60;99.90;;;;;;5043326;28;20227;-68
2022/03/17 09:39:46;;;;;;;17.20;15.52;;;14.50;99.90;;;;;;5036396;28;20088;-69
2022/03/17 09:42:18;;;;;;;17.92;16.05;;;14.60;99.90;;;;;;5041739;28;20021;-68
2022/03/17 09:44:46;;;;;;;16.33;14.68;;;14.60;99.90;;;;;;5047814;28;20021;-67
2022/03/17 09:47:16;;;;;;;18.90;15.63;;;14.70;99.90;;;;;;5029499;28;20105;-66
2022/03/17 09:49:43;;;;;;;20.05;16.40;;;14.70;99.90;;;;;;5046802;28;20028;-68
2022/03/17 09:52:17;;;;;;;16.05;14.43;;;14.70;99.90;;;;;;5039401;28;20021;-67
2022/03/17 09:54:44;;;;;;;19.13;15.18;;;14.70;99.90;;;;;;5039828;28;20476;-66
2022/03/17 09:57:10;;;;;;;35.67;15.77;;;15.00;99.90;;;;;;5039976;28;20075;-67
2022/03/17 09:59:36;;;;;;;15.63;11.65;;;15.10;99.90;;;;;;5037097;28;20053;-68
2022/03/17 10:02:02;;;;;;;17.85;12.50;;;14.90;99.90;;;;;;5040346;28;20583;-68
2022/03/17 10:04:32;;;;;;;14.02;12.10;;;14.90;99.90;;;;;;5045139;28;20402;-68
2022/03/17 10:07:00;;;;;;;21.00;14.30;;;15.10;99.90;;;;;;5039769;28;20498;-68
2022/03/17 10:09:28;;;;;;;17.25;15.32;;;15.30;99.90;;;;;;5046315;28;20073;-67
2022/03/17 10:12:02;;;;;;;16.98;15.25;;;15.40;99.90;;;;;;5046414;28;20079;-67
2022/03/17 10:14:54;;;;;;;16.08;14.48;;;15.60;99.90;;;;;;5039533;28;20025;-67
2022/03/17 10:17:35;;;;;;;14.52;13.13;;;15.70;99.90;;;;;;5038554;28;20052;-68
2022/03/17 10:20:18;;;;;;;13.63;12.35;;;15.60;99.90;;;;;;5034206;28;20041;-67
2022/03/17 10:22:48;;;;;;;15.13;13.02;;;15.40;99.90;;;;;;5043833;28;20374;-68
2022/03/17 10:25:18;;;;;;;24.85;13.75;;;15.20;99.90;;;;;;5043647;28;20022;-70
2022/03/17 10:27:45;;;;;;;14.15;11.55;;;15.10;99.90;;;;;;5044803;28;20044;-68
2022/03/17 10:30:12;;;;;;;16.15;11.18;;;15.20;99.90;;;;;;5043018;28;20103;-70
2022/03/17 10:32:38;;;;;;;17.63;12.85;;;15.30;99.90;;;;;;5044754;28;20092;-69
2022/03/17 10:35:08;;;;;;;16.38;11.90;;;15.50;99.90;;;;;;5042369;28;20107;-68
2022/03/17 10:37:36;;;;;;;15.55;13.10;;;15.40;99.90;;;;;;5041720;28;20049;-69
2022/03/17 10:40:09;;;;;;;15.43;13.07;;;15.40;99.90;;;;;;5044723;28;20083;-69
2022/03/17 10:42:35;;;;;;;15.73;13.77;;;15.30;99.90;;;;;;5041437;28;20368;-68
2022/03/17 10:45:05;;;;;;;12.82;10.80;;;15.40;99.90;;;;;;5039362;28;20032;-69
2022/03/17 10:47:39;;;;;;;13.90;12.25;;;15.40;99.90;;;;;;5040547;28;20032;-67
2022/03/17 10:50:12;;;;;;;17.25;12.23;;;15.30;99.90;;;;;;5042632;28;20119;-69
2022/03/17 10:52:56;;;;;;;18.48;12.50;;;15.50;99.90;;;;;;5040118;28;20483;-67
2022/03/17 10:55:30;;;;;;;10.10;9.15;;;15.60;99.90;;;;;;5040327;28;20051;-69
2022/03/17 10:58:09;;;;;;;18.75;12.55;;;15.50;99.90;;;;;;5045772;28;20391;-67
2022/03/17 11:00:57;;;;;;;14.68;12.48;;;15.50;99.90;;;;;;5043717;28;20032;-70
2022/03/17 11:03:23;;;;;;;13.98;12.60;;;15.30;99.90;;;;;;5041691;28;20040;-68
2022/03/17 11:05:51;;;;;;;17.38;13.93;;;15.60;99.90;;;;;;5045443;28;20025;-68
2022/03/17 11:08:20;;;;;;;14.85;13.25;;;15.90;99.90;;;;;;5043359;28;20045;-70
2022/03/17 11:10:46;;;;;;;13.98;11.98;;;16.10;99.90;;;;;;5040495;28;20026;-68
2022/03/17 11:13:12;;;;;;;17.15;12.95;;;15.80;99.90;;;;;;5041522;28;20100;-67
2022/03/17 11:15:48;;;;;;;18.40;12.77;;;15.70;99.90;;;;;;5042305;28;20340;-68
2022/03/17 11:18:17;;;;;;;16.20;12.98;;;15.60;99.90;;;;;;5041979;28;20543;-69
2022/03/17 11:20:44;;;;;;;14.45;12.13;;;15.70;99.90;;;;;;5041109;28;20025;-67
2022/03/17 11:23:24;;;;;;;16.00;14.40;;;15.80;99.90;;;;;;5040236;28;20036;-68
2022/03/17 11:25:58;;;;;;;15.48;13.15;;;16.00;99.90;;;;;;5056860;28;20053;-67
2022/03/17 11:28:32;;;;;;;20.00;12.43;;;16.30;99.90;;;;;;5031060;28;20027;-68
2022/03/17 11:31:04;;;;;;;16.65;12.65;;;16.10;99.90;;;;;;5041132;28;20113;-69
2022/03/17 11:33:36;;;;;;;;;;;15.90;99.90;;;;;;5043380;28;20029;-68
2022/03/17 11:36:08;;;;;;;13.98;11.77;;;15.90;99.90;;;;;;5037544;28;19912;-67
2022/03/17 11:38:38;;;;;;;13.43;12.05;;;16.00;99.90;;;;;;5043985;28;20645;-68
2022/03/17 11:41:20;;;;;;;11.70;10.45;;;15.90;99.90;;;;;;5040015;28;20033;-69
2022/03/17 11:43:46;;;;;;;14.93;10.98;;;15.90;99.90;;;;;;5035290;28;20491;-68
2022/03/17 11:46:17;;;;;;;16.60;10.45;;;16.00;99.90;;;;;;5042430;28;20039;-68
2022/03/17 11:48:45;;;;;;;14.10;11.55;;;16.00;99.90;;;;;;5033509;28;20033;-68
2022/03/17 11:51:13;;;;;;;14.07;10.52;;;16.10;99.90;;;;;;5041264;28;20423;-69
2022/03/17 11:53:45;;;;;;;14.35;12.00;;;16.20;99.90;;;;;;5037321;28;20105;-67
2022/03/17 11:56:16;;;;;;;13.55;12.13;;;16.10;99.90;;;;;;5037443;28;20027;-67
2022/03/17 11:58:43;;;;;;;12.02;10.77;;;16.40;99.90;;;;;;5044958;28;20455;-68
2022/03/17 12:01:23;;;;;;;16.05;11.30;;;16.30;99.90;;;;;;5039876;28;20027;-68
2022/03/17 12:03:57;;;;;;;23.65;11.95;;;16.20;99.90;;;;;;5042039;28;20116;-68
2022/03/17 12:06:25;;;;;;;14.93;11.65;;;16.10;99.90;;;;;;5041402;28;20083;-68
2022/03/17 12:09:03;;;;;;;16.27;11.55;;;16.20;99.90;;;;;;5042613;28;20029;-68
2022/03/17 12:11:36;;;;;;;15.98;10.43;;;16.20;99.90;;;;;;5041403;28;20022;-68
2022/03/17 12:14:24;;;;;;;11.82;10.70;;;16.20;99.90;;;;;;5041896;28;20030;-68
2022/03/17 12:17:09;;;;;;;17.58;10.43;;;16.40;99.90;;;;;;5050725;28;20123;-70
2022/03/17 12:19:39;;;;;;;12.90;11.10;;;16.50;99.90;;;;;;5053807;28;20035;-69
2022/03/17 12:22:14;;;;;;;11.52;10.43;;;16.60;99.90;;;;;;5052540;28;20059;-67
2022/03/17 12:24:47;;;;;;;9.98;9.07;;;16.60;99.90;;;;;;5051963;28;20082;-71
2022/03/17 12:27:13;;;;;;;19.35;10.95;;;16.40;99.90;;;;;;5052171;28;20170;-68
2022/03/17 12:29:42;;;;;;;21.95;8.68;;;16.60;99.90;;;;;;5052141;28;20025;-68
2022/03/17 12:32:11;;;;;;;13.35;10.10;;;16.60;99.90;;;;;;5053659;28;20446;-68
2022/03/17 12:34:38;;;;;;;11.52;10.40;;;16.50;99.90;;;;;;5052883;28;20060;-68
2022/03/17 12:37:05;;;;;;;13.25;11.98;;;16.50;99.90;;;;;;5053208;28;20120;-68
2022/03/17 12:39:33;;;;;;;15.52;11.30;;;16.50;99.90;;;;;;5055647;28;20025;-68
2022/03/17 12:42:00;;;;;;;14.35;10.68;;;16.60;99.90;;;;;;5054369;28;20047;-67
2022/03/17 12:44:27;;;;;;;12.82;10.75;;;16.70;99.90;;;;;;5053938;28;20029;-68
2022/03/17 12:46:54;;;;;;;13.63;9.75;;;16.70;99.90;;;;;;5053837;28;20032;-67